Terminal Aerodrome Forecast
Issued by NWS Mt. Holly, NJ

Home | Current Version | Previous Version | Text Only | Print | Product List | Glossary On
Versions: 1 2 3 4 5 6 7 8 9 10 11 12 13 14 15 16 17 18 19 20 21 22 23 24 25 26 27 28
951
FTUS41 KPHI 201502 AAA
TAFPHL
TAF AMD
KPHL 201502Z 2015/2118 11005KT P6SM VCSH SCT120 OVC200
     FM201600 14005KT 6SM -RA FEW030 OVC070
     FM202000 15006KT 5SM -RA BR BKN015 OVC030
     FM202200 16004KT 6SM BR SCT007 OVC015
     FM210100 17004KT 6SM BR BKN007 OVC015
     FM210500 19003KT 3SM BR OVC004
     FM211400 23005KT 6SM BR BKN008
     FM211700 23006KT P6SM FEW009 BKN020=

USA.gov is the U.S. government's official web portal to all federal, state and local government web resources and services.